^^
Saratoga-Weather Station Historical Data
Daily Summary for June 19, 2020 Units:  Both    English   Metric
Daily Weekly Monthly Yearly Custom
  High: Low: Average:
Temperature: 41.4 °F /  5.2 °C 31.5 °F /  -0.3 °C 37 °F /  2.8 °C
Dew Point: 36.1 °F /  2.3 °C 30 °F /  -1.1 °C 34 °F /  1.1 °C
Humidity: 96% 79% 89%
Wind Speed: 9mph /  14.5km/h - 0.6mph /  0.9km/h
Wind Gust: 11mph /  17.7km/h - -
Wind- - South
Pressure: 30.8 in /  1044.4 hPa 30.4 in /  1030.5 hPa -
Precipitation: 0.01 in /  0.2 mm    
Historical Graphs
 
 
Tabular Data for June 19, 2020
Time Temperature Dew Point Pressure Wind Wind Speed Wind Gust Humidity Rainfall Rate (Hourly) solar
00:04 32.7 °F /  0.4 °C 31.5 °F /  -0.3 °C 30.4in /  1030.5hPa Calm     95% 0in /  0.0mm 0 W/m2
00:09 32.7 °F /  0.4 °C 31.5 °F /  -0.3 °C 30.4in /  1030.5hPa Calm   1mph /  1.6km/h 95% 0in /  0.0mm 0 W/m2
00:14 32.7 °F /  0.4 °C 31.5 °F /  -0.3 °C 30.4in /  1030.5hPa Calm     95% 0in /  0.0mm 0 W/m2
00:19 32.5 °F /  0.3 °C 31.3 °F /  -0.4 °C 30.4in /  1030.5hPa Calm     95% 0in /  0.0mm 0 W/m2
00:25 32.5 °F /  0.3 °C 31.3 °F /  -0.4 °C 30.4in /  1030.5hPa Calm     95% 0in /  0.0mm 0 W/m2
00:30 32.4 °F /  0.2 °C 31.1 °F /  -0.5 °C 30.4in /  1030.5hPa Calm     95% 0in /  0.0mm 0 W/m2
00:35 32.4 °F /  0.2 °C 31.1 °F /  -0.5 °C 30.4in /  1030.8hPa Calm     95% 0in /  0.0mm 0 W/m2
00:40 32.5 °F /  0.3 °C 31.5 °F /  -0.3 °C 30.4in /  1030.8hPa Calm     96% 0in /  0.0mm 0 W/m2
00:45 32.7 °F /  0.4 °C 31.5 °F /  -0.3 °C 30.4in /  1030.8hPa Calm     95% 0in /  0.0mm 0 W/m2
00:50 32.5 °F /  0.3 °C 31.3 °F /  -0.4 °C 30.4in /  1030.8hPa Calm     95% 0in /  0.0mm 0 W/m2
00:55 32.4 °F /  0.2 °C 31.1 °F /  -0.5 °C 30.4in /  1030.8hPa Calm     95% 0in /  0.0mm 0 W/m2
01:00 32.4 °F /  0.2 °C 31.3 °F /  -0.4 °C 30.4in /  1030.8hPa Calm   1mph /  1.6km/h 96% 0in /  0.0mm 0 W/m2
01:05 32.4 °F /  0.2 °C 31.3 °F /  -0.4 °C 30.5in /  1031.2hPa Calm     96% 0in /  0.0mm 0 W/m2
01:10 32.5 °F /  0.3 °C 31.5 °F /  -0.3 °C 30.5in /  1031.2hPa Calm   1mph /  1.6km/h 96% 0in /  0.0mm 0 W/m2
01:15 32.7 °F /  0.4 °C 31.6 °F /  -0.2 °C 30.5in /  1031.2hPa Calm     96% 0in /  0.0mm 0 W/m2
01:20 32.9 °F /  0.5 °C 31.8 °F /  -0.1 °C 30.5in /  1031.2hPa Calm     96% 0in /  0.0mm 0 W/m2
01:25 33.3 °F /  0.7 °C 32.2 °F /  0.1 °C 30.5in /  1031.2hPa Calm     96% 0in /  0.0mm 0 W/m2
01:30 33.4 °F /  0.8 °C 32.4 °F /  0.2 °C 30.5in /  1031.2hPa Calm     96% 0in /  0.0mm 0 W/m2
01:35 33.6 °F /  0.9 °C 32.5 °F /  0.3 °C 30.5in /  1031.2hPa Calm   1mph /  1.6km/h 96% 0in /  0.0mm 0 W/m2
01:40 33.6 °F /  0.9 °C 32.5 °F /  0.3 °C 30.5in /  1031.5hPa Calm     96% 0in /  0.0mm 0 W/m2
01:45 33.6 °F /  0.9 °C 32.5 °F /  0.3 °C 30.5in /  1031.5hPa Calm   1mph /  1.6km/h 96% 0in /  0.0mm 0 W/m2
01:50 33.6 °F /  0.9 °C 32.4 °F /  0.2 °C 30.5in /  1031.5hPa Calm   3mph /  4.8km/h 95% 0in /  0.0mm 0 W/m2
01:55 34 °F /  1.1 °C 32.7 °F /  0.4 °C 30.5in /  1031.5hPa Calm     95% 0in /  0.0mm 0 W/m2
02:00 34.2 °F /  1.2 °C 32.9 °F /  0.5 °C 30.5in /  1031.5hPa Calm     95% 0in /  0.0mm 0 W/m2
02:05 34 °F /  1.1 °C 32.7 °F /  0.4 °C 30.5in /  1031.5hPa Calm     95% 0in /  0.0mm 0 W/m2
02:10 34.2 °F /  1.2 °C 32.9 °F /  0.5 °C 30.5in /  1031.2hPa Calm     95% 0in /  0.0mm 0 W/m2
02:15 34 °F /  1.1 °C 32.4 °F /  0.2 °C 30.5in /  1031.5hPa Calm   1mph /  1.6km/h 94% 0in /  0.0mm 0 W/m2
02:20 34 °F /  1.1 °C 32.4 °F /  0.2 °C 30.5in /  1031.5hPa Calm     94% 0in /  0.0mm 0 W/m2
02:25 34.2 °F /  1.2 °C 32.5 °F /  0.3 °C 30.5in /  1031.5hPa Calm     94% 0in /  0.0mm 0 W/m2
02:30 34.2 °F /  1.2 °C 32.5 °F /  0.3 °C 30.5in /  1031.5hPa Calm     94% 0in /  0.0mm 0 W/m2
02:35 34.2 °F /  1.2 °C 32.5 °F /  0.3 °C 30.5in /  1031.5hPa Calm     94% 0in /  0.0mm 0 W/m2
02:40 34.2 °F /  1.2 °C 32.5 °F /  0.3 °C 30.5in /  1031.5hPa Calm     94% 0in /  0.0mm 0 W/m2
02:45 33.8 °F /  1 °C 32 °F /  0 °C 30.5in /  1031.8hPa Calm     93% 0in /  0.0mm 0 W/m2
02:50 33.4 °F /  0.8 °C 31.6 °F /  -0.2 °C 30.5in /  1031.8hPa Calm     93% 0in /  0.0mm 0 W/m2
02:55 32.9 °F /  0.5 °C 31.1 °F /  -0.5 °C 30.5in /  1032.2hPa Calm     93% 0in /  0.0mm 0 W/m2
03:00 32.5 °F /  0.3 °C 30.7 °F /  -0.7 °C 30.5in /  1032.2hPa Calm     93% 0in /  0.0mm 0 W/m2
03:05 32.4 °F /  0.2 °C 30.6 °F /  -0.8 °C 30.5in /  1032.2hPa Calm     93% 0in /  0.0mm 0 W/m2
03:10 32 °F /  0 °C 30.2 °F /  -1 °C 30.5in /  1032.2hPa Calm     93% 0in /  0.0mm 0 W/m2
03:15 31.8 °F /  -0.1 °C 30.4 °F /  -0.9 °C 30.5in /  1032.2hPa Calm     94% 0in /  0.0mm 0 W/m2
03:20 31.8 °F /  -0.1 °C 30.4 °F /  -0.9 °C 30.5in /  1032.2hPa Calm     94% 0in /  0.0mm 0 W/m2
03:25 31.6 °F /  -0.2 °C 30.2 °F /  -1 °C 30.5in /  1032.2hPa Calm     94% 0in /  0.0mm 0 W/m2
03:30 31.6 °F /  -0.2 °C 30.2 °F /  -1 °C 30.5in /  1032.5hPa Calm     94% 0in /  0.0mm 0 W/m2
03:35 31.6 °F /  -0.2 °C 30.2 °F /  -1 °C 30.5in /  1032.5hPa Calm     94% 0in /  0.0mm 0 W/m2
03:40 31.6 °F /  -0.2 °C 30.2 °F /  -1 °C 30.5in /  1032.5hPa Calm     94% 0in /  0.0mm 0 W/m2
03:45 31.5 °F /  -0.3 °C 30 °F /  -1.1 °C 30.5in /  1032.5hPa Calm     94% 0in /  0.0mm 0 W/m2
03:50 31.5 °F /  -0.3 °C 30.2 °F /  -1 °C 30.5in /  1032.5hPa Calm     95% 0in /  0.0mm 0 W/m2
03:55 31.6 °F /  -0.2 °C 30.4 °F /  -0.9 °C 30.5in /  1032.5hPa Calm     95% 0in /  0.0mm 0 W/m2
04:00 31.8 °F /  -0.1 °C 30.6 °F /  -0.8 °C 30.5in /  1032.5hPa Calm     95% 0in /  0.0mm 0 W/m2
04:05 32 °F /  0 °C 30.7 °F /  -0.7 °C 30.5in /  1032.5hPa Calm     95% 0in /  0.0mm 0 W/m2
04:10 32 °F /  0 °C 30.7 °F /  -0.7 °C 30.5in /  1032.5hPa Calm     95% 0in /  0.0mm 0 W/m2
04:15 31.8 °F /  -0.1 °C 30.6 °F /  -0.8 °C 30.5in /  1032.5hPa Calm     95% 0in /  0.0mm 0 W/m2
04:20 31.8 °F /  -0.1 °C 30.6 °F /  -0.8 °C 30.5in /  1032.5hPa Calm     95% 0in /  0.0mm 0 W/m2
04:25 31.6 °F /  -0.2 °C 30.4 °F /  -0.9 °C 30.5in /  1032.8hPa Calm     95% 0in /  0.0mm 0 W/m2
04:31 31.6 °F /  -0.2 °C 30.4 °F /  -0.9 °C 30.5in /  1032.8hPa Calm     95% 0in /  0.0mm 0 W/m2
04:36 31.5 °F /  -0.3 °C 30.2 °F /  -1 °C 30.5in /  1032.8hPa Calm     95% 0in /  0.0mm 0 W/m2
04:41 32 °F /  0 °C 30.7 °F /  -0.7 °C 30.5in /  1032.8hPa Calm     95% 0in /  0.0mm 0 W/m2
04:46 32.4 °F /  0.2 °C 31.1 °F /  -0.5 °C 30.5in /  1032.8hPa Calm   1mph /  1.6km/h 95% 0in /  0.0mm 0 W/m2
04:51 32.5 °F /  0.3 °C 31.5 °F /  -0.3 °C 30.5in /  1032.8hPa Calm     96% 0in /  0.0mm 0 W/m2
04:56 32.4 °F /  0.2 °C 31.1 °F /  -0.5 °C 30.5in /  1032.8hPa Calm     95% 0in /  0.0mm 0 W/m2
05:01 32.4 °F /  0.2 °C 31.1 °F /  -0.5 °C 30.5in /  1032.8hPa Calm     95% 0in /  0.0mm 0 W/m2
05:06 32.4 °F /  0.2 °C 31.1 °F /  -0.5 °C 30.5in /  1033.2hPa Calm   3mph /  4.8km/h 95% 0in /  0.0mm 0 W/m2
05:11 32.7 °F /  0.4 °C 31.6 °F /  -0.2 °C 30.5in /  1032.8hPa Calm     96% 0in /  0.0mm 0 W/m2
05:16 33.3 °F /  0.7 °C 32.2 °F /  0.1 °C 30.5in /  1032.8hPa Calm     96% 0in /  0.0mm 0 W/m2
05:21 33.4 °F /  0.8 °C 32.2 °F /  0.1 °C 30.5in /  1032.8hPa Calm     95% 0in /  0.0mm 0 W/m2
05:26 33.4 °F /  0.8 °C 32.2 °F /  0.1 °C 30.5in /  1033.2hPa Calm     95% 0in /  0.0mm 0 W/m2
05:31 33.6 °F /  0.9 °C 32.4 °F /  0.2 °C 30.5in /  1033.2hPa Calm     95% 0in /  0.0mm 0 W/m2
05:36 33.6 °F /  0.9 °C 32.4 °F /  0.2 °C 30.5in /  1033.2hPa Calm     95% 0in /  0.0mm 0 W/m2
05:41 33.4 °F /  0.8 °C 32.2 °F /  0.1 °C 30.5in /  1033.2hPa Calm     95% 0in /  0.0mm 0 W/m2
05:46 33.4 °F /  0.8 °C 32.2 °F /  0.1 °C 30.5in /  1033.2hPa Calm     95% 0in /  0.0mm 0 W/m2
05:51 33.6 °F /  0.9 °C 32.4 °F /  0.2 °C 30.5in /  1033.5hPa Calm     95% 0in /  0.0mm 0 W/m2
05:56 34 °F /  1.1 °C 32.7 °F /  0.4 °C 30.5in /  1033.5hPa Calm     95% 0in /  0.0mm 0 W/m2
06:01 34.3 °F /  1.3 °C 33.1 °F /  0.6 °C 30.5in /  1033.5hPa Calm     95% 0in /  0.0mm 0 W/m2
06:06 34.5 °F /  1.4 °C 32.9 °F /  0.5 °C 30.5in /  1033.5hPa Calm     94% 0in /  0.0mm 0 W/m2
06:11 34.9 °F /  1.6 °C 33.3 °F /  0.7 °C 30.5in /  1033.5hPa Calm     94% 0in /  0.0mm 0 W/m2
06:16 35.1 °F /  1.7 °C 33.4 °F /  0.8 °C 30.5in /  1033.5hPa Calm     94% 0in /  0.0mm 0 W/m2
06:21 35.2 °F /  1.8 °C 33.4 °F /  0.8 °C 30.5in /  1033.5hPa Calm     93% 0in /  0.0mm 0 W/m2
06:26 35.4 °F /  1.9 °C 33.6 °F /  0.9 °C 30.5in /  1033.5hPa Calm     93% 0in /  0.0mm 0 W/m2
06:31 35.2 °F /  1.8 °C 33.1 °F /  0.6 °C 30.5in /  1033.5hPa Calm     92% 0in /  0.0mm 0 W/m2
06:36 34.9 °F /  1.6 °C 32.5 °F /  0.3 °C 30.5in /  1033.9hPa Calm     91% 0in /  0.0mm 0 W/m2
06:41 34.2 °F /  1.2 °C 31.8 °F /  -0.1 °C 30.5in /  1033.9hPa Calm     91% 0in /  0.0mm 0 W/m2
06:46 33.6 °F /  0.9 °C 31.5 °F /  -0.3 °C 30.5in /  1033.9hPa Calm     92% 0in /  0.0mm 0 W/m2
06:52 33.4 °F /  0.8 °C 31.3 °F /  -0.4 °C 30.5in /  1033.9hPa Calm     92% 0in /  0.0mm 0 W/m2
06:57 33.3 °F /  0.7 °C 31.1 °F /  -0.5 °C 30.5in /  1033.9hPa Calm     92% 0in /  0.0mm 0 W/m2
07:02 33.1 °F /  0.6 °C 31.3 °F /  -0.4 °C 30.5in /  1033.9hPa Calm     93% 0in /  0.0mm 0 W/m2
07:07 33.1 °F /  0.6 °C 31.3 °F /  -0.4 °C 30.5in /  1033.9hPa Calm     93% 0in /  0.0mm 0 W/m2
07:12 33.3 °F /  0.7 °C 31.5 °F /  -0.3 °C 30.5in /  1033.9hPa Calm     93% 0in /  0.0mm 0 W/m2
07:17 33.4 °F /  0.8 °C 31.8 °F /  -0.1 °C 30.5in /  1033.9hPa Calm     94% 0in /  0.0mm 0 W/m2
07:22 33.8 °F /  1 °C 32.2 °F /  0.1 °C 30.5in /  1033.9hPa Calm     94% 0in /  0.0mm 0 W/m2
07:27 34 °F /  1.1 °C 32.4 °F /  0.2 °C 30.5in /  1033.9hPa Calm     94% 0in /  0.0mm 0 W/m2
07:32 34.2 °F /  1.2 °C 32.5 °F /  0.3 °C 30.5in /  1033.9hPa Calm     94% 0in /  0.0mm 0 W/m2
07:37 34.2 °F /  1.2 °C 32.5 °F /  0.3 °C 30.5in /  1033.9hPa Calm     94% 0in /  0.0mm 0 W/m2
07:42 34 °F /  1.1 °C 32.2 °F /  0.1 °C 30.5in /  1034.2hPa Calm     93% 0in /  0.0mm 0 W/m2
07:47 33.8 °F /  1 °C 32 °F /  0 °C 30.5in /  1034.2hPa Calm     93% 0in /  0.0mm 0 W/m2
07:52 33.8 °F /  1 °C 32.2 °F /  0.1 °C 30.5in /  1034.2hPa Calm     94% 0in /  0.0mm 0 W/m2
07:57 34 °F /  1.1 °C 32.4 °F /  0.2 °C 30.5in /  1034.2hPa Calm     94% 0in /  0.0mm 0 W/m2
08:02 34.2 °F /  1.2 °C 32.5 °F /  0.3 °C 30.6in /  1034.5hPa Calm     94% 0in /  0.0mm 0 W/m2
08:07 34.3 °F /  1.3 °C 32.7 °F /  0.4 °C 30.6in /  1034.5hPa Calm     94% 0in /  0.0mm 0 W/m2
08:12 34.5 °F /  1.4 °C 32.9 °F /  0.5 °C 30.6in /  1034.5hPa Calm     94% 0in /  0.0mm 0 W/m2
08:17 34.5 °F /  1.4 °C 32.7 °F /  0.4 °C 30.6in /  1034.5hPa Calm     93% 0in /  0.0mm 0 W/m2
08:22 34.5 °F /  1.4 °C 32.7 °F /  0.4 °C 30.6in /  1034.5hPa Calm   1mph /  1.6km/h 93% 0in /  0.0mm 0 W/m2
08:27 34.5 °F /  1.4 °C 32.7 °F /  0.4 °C 30.6in /  1034.5hPa Calm     93% 0in /  0.0mm 5 W/m2
08:32 34.5 °F /  1.4 °C 32.7 °F /  0.4 °C 30.6in /  1034.5hPa Calm     93% 0in /  0.0mm 5 W/m2
08:37 34.7 °F /  1.5 °C 32.9 °F /  0.5 °C 30.6in /  1034.9hPa Calm     93% 0in /  0.0mm 9 W/m2
08:42 34.9 °F /  1.6 °C 33.1 °F /  0.6 °C 30.6in /  1035.2hPa Calm     93% 0in /  0.0mm 12 W/m2
08:47 34.7 °F /  1.5 °C 32.9 °F /  0.5 °C 30.6in /  1035.2hPa Calm     93% 0in /  0.0mm 18 W/m2
08:52 34.7 °F /  1.5 °C 32.9 °F /  0.5 °C 30.6in /  1035.2hPa Calm     93% 0in /  0.0mm 19 W/m2
08:57 34.9 °F /  1.6 °C 33.1 °F /  0.6 °C 30.6in /  1035.2hPa Calm     93% 0in /  0.0mm 14 W/m2
09:02 34.5 °F /  1.4 °C 32.7 °F /  0.4 °C 30.6in /  1035.2hPa Calm     93% 0in /  0.0mm 16 W/m2
09:07 34.5 °F /  1.4 °C 32.7 °F /  0.4 °C 30.6in /  1035.2hPa Calm     93% 0in /  0.0mm 18 W/m2
09:12 34.5 °F /  1.4 °C 32.7 °F /  0.4 °C 30.6in /  1035.6hPa Calm     93% 0in /  0.0mm 21 W/m2
09:17 34.5 °F /  1.4 °C 32.7 °F /  0.4 °C 30.6in /  1035.6hPa Calm     93% 0in /  0.0mm 19 W/m2
09:22 34.3 °F /  1.3 °C 32.5 °F /  0.3 °C 30.6in /  1035.6hPa Calm     93% 0in /  0.0mm 19 W/m2
09:27 34.5 °F /  1.4 °C 32.7 °F /  0.4 °C 30.6in /  1035.6hPa Calm     93% 0in /  0.0mm 23 W/m2
09:32 34.3 °F /  1.3 °C 32.5 °F /  0.3 °C 30.6in /  1035.6hPa Calm     93% 0in /  0.0mm 32 W/m2
09:37 34.3 °F /  1.3 °C 32.5 °F /  0.3 °C 30.6in /  1035.6hPa Calm     93% 0in /  0.0mm 33 W/m2
09:42 34.2 °F /  1.2 °C 32.4 °F /  0.2 °C 30.6in /  1035.9hPa Calm     93% 0in /  0.0mm 33 W/m2
09:47 34 °F /  1.1 °C 32.2 °F /  0.1 °C 30.6in /  1035.9hPa Calm     93% 0in /  0.0mm 33 W/m2
09:52 33.6 °F /  0.9 °C 31.8 °F /  -0.1 °C 30.6in /  1036.2hPa Calm   1mph /  1.6km/h 93% 0in /  0.0mm 44 W/m2
09:57 33.6 °F /  0.9 °C 31.8 °F /  -0.1 °C 30.6in /  1036.2hPa Calm     93% 0in /  0.0mm 33 W/m2
10:02 33.6 °F /  0.9 °C 32 °F /  0 °C 30.6in /  1036.2hPa Calm   1mph /  1.6km/h 94% 0in /  0.0mm 35 W/m2
10:07 34.3 °F /  1.3 °C 32.7 °F /  0.4 °C 30.6in /  1036.2hPa Calm     94% 0in /  0.0mm 35 W/m2
10:12 34.9 °F /  1.6 °C 33.3 °F /  0.7 °C 30.6in /  1036.2hPa Calm     94% 0in /  0.0mm 35 W/m2
10:17 35.2 °F /  1.8 °C 33.6 °F /  0.9 °C 30.6in /  1036.2hPa Calm     94% 0in /  0.0mm 35 W/m2
10:22 35.8 °F /  2.1 °C 34 °F /  1.1 °C 30.6in /  1036.6hPa Calm     93% 0in /  0.0mm 39 W/m2
10:27 36 °F /  2.2 °C 34.2 °F /  1.2 °C 30.6in /  1036.6hPa Calm   1mph /  1.6km/h 93% 0in /  0.0mm 56 W/m2
10:32 36.1 °F /  2.3 °C 34.3 °F /  1.3 °C 30.6in /  1036.6hPa Calm     93% 0in /  0.0mm 58 W/m2
10:37 36.5 °F /  2.5 °C 34.3 °F /  1.3 °C 30.6in /  1036.9hPa Calm     92% 0.01in /  0.2mm 63 W/m2
10:42 36.7 °F /  2.6 °C 34.5 °F /  1.4 °C 30.6in /  1036.9hPa Calm     92% 0.01in /  0.2mm 65 W/m2
10:47 36.9 °F /  2.7 °C 34.7 °F /  1.5 °C 30.6in /  1036.9hPa Calm     92% 0.01in /  0.2mm 116 W/m2
10:52 37.2 °F /  2.9 °C 35.1 °F /  1.7 °C 30.6in /  1037.2hPa Calm   1mph /  1.6km/h 92% 0.01in /  0.2mm 88 W/m2
10:57 37.4 °F /  3 °C 35.1 °F /  1.7 °C 30.6in /  1037.2hPa Calm     91% 0.01in /  0.2mm 90 W/m2
11:02 37.8 °F /  3.2 °C 35.4 °F /  1.9 °C 30.6in /  1037.2hPa Calm   1mph /  1.6km/h 91% 0.01in /  0.2mm 125 W/m2
11:07 37.9 °F /  3.3 °C 35.2 °F /  1.8 °C 30.6in /  1037.6hPa Calm   1mph /  1.6km/h 90% 0.01in /  0.2mm 116 W/m2
11:13 38.5 °F /  3.6 °C 35.8 °F /  2.1 °C 30.6in /  1037.6hPa Calm   1mph /  1.6km/h 90% 0.01in /  0.2mm 118 W/m2
11:18 38.7 °F /  3.7 °C 35.8 °F /  2.1 °C 30.6in /  1037.6hPa WNW 0.9mph /  1.4km/h 2mph /  3.2km/h 89% 0.01in /  0.2mm 123 W/m2
11:23 38.8 °F /  3.8 °C 35.6 °F /  2 °C 30.6in /  1037.6hPa NW 8.1mph /  13km/h 8mph /  12.9km/h 88% 0.01in /  0.2mm 141 W/m2
11:28 39 °F /  3.9 °C 35.2 °F /  1.8 °C 30.6in /  1037.6hPa NNE 2mph /  3.2km/h 6mph /  9.7km/h 86% 0.01in /  0.2mm 141 W/m2
11:33 39.4 °F /  4.1 °C 35.6 °F /  2 °C 30.6in /  1037.6hPa Calm   8mph /  12.9km/h 86% 0.01in /  0.2mm 113 W/m2
11:38 39.4 °F /  4.1 °C 35.2 °F /  1.8 °C 30.6in /  1037.6hPa Calm   7mph /  11.3km/h 85% 0in /  0.0mm 56 W/m2
11:43 39.4 °F /  4.1 °C 35.2 °F /  1.8 °C 30.6in /  1037.6hPa NNW 4.9mph /  7.9km/h 8mph /  12.9km/h 85% 0in /  0.0mm 81 W/m2
11:48 39.4 °F /  4.1 °C 35.2 °F /  1.8 °C 30.6in /  1037.6hPa WNW 0.9mph /  1.4km/h 7mph /  11.3km/h 85% 0in /  0.0mm 54 W/m2
11:53 39.4 °F /  4.1 °C 35.2 °F /  1.8 °C 30.6in /  1037.6hPa Calm   5mph /  8km/h 85% 0in /  0.0mm 51 W/m2
11:58 39.6 °F /  4.2 °C 35.1 °F /  1.7 °C 30.6in /  1037.6hPa Calm   2mph /  3.2km/h 84% 0in /  0.0mm 44 W/m2
12:03 39.7 °F /  4.3 °C 35.6 °F /  2 °C 30.6in /  1037.6hPa Calm   1mph /  1.6km/h 85% 0in /  0.0mm 42 W/m2
12:08 39.7 °F /  4.3 °C 35.2 °F /  1.8 °C 30.6in /  1037.2hPa West 0.9mph /  1.4km/h 4mph /  6.4km/h 84% 0in /  0.0mm 44 W/m2
12:13 39.9 °F /  4.4 °C 35.2 °F /  1.8 °C 30.6in /  1037.2hPa NW 4.9mph /  7.9km/h 11mph /  17.7km/h 83% 0in /  0.0mm 67 W/m2
12:18 40.5 °F /  4.7 °C 35.8 °F /  2.1 °C 30.6in /  1037.6hPa NNW 2.9mph /  4.7km/h 8mph /  12.9km/h 83% 0in /  0.0mm 98 W/m2
12:23 40.5 °F /  4.7 °C 35.4 °F /  1.9 °C 30.6in /  1037.6hPa NNW 6mph /  9.7km/h 11mph /  17.7km/h 82% 0in /  0.0mm 109 W/m2
12:28 40.6 °F /  4.8 °C 35.6 °F /  2 °C 30.6in /  1037.6hPa North 2mph /  3.2km/h 10mph /  16.1km/h 82% 0in /  0.0mm 105 W/m2
12:33 40.6 °F /  4.8 °C 35.2 °F /  1.8 °C 30.6in /  1037.6hPa North 4.9mph /  7.9km/h 8mph /  12.9km/h 81% 0in /  0.0mm 67 W/m2
12:38 40.5 °F /  4.7 °C 35.1 °F /  1.7 °C 30.6in /  1037.6hPa Calm   5mph /  8km/h 81% 0in /  0.0mm 51 W/m2
12:43 40.3 °F /  4.6 °C 34.9 °F /  1.6 °C 30.6in /  1037.2hPa NNE 2mph /  3.2km/h 3mph /  4.8km/h 81% 0in /  0.0mm 53 W/m2
12:48 40.3 °F /  4.6 °C 34.9 °F /  1.6 °C 30.6in /  1037.2hPa NNW 0.9mph /  1.4km/h 4mph /  6.4km/h 81% 0in /  0.0mm 54 W/m2
12:53 40.3 °F /  4.6 °C 34.9 °F /  1.6 °C 30.6in /  1037.2hPa North 2.9mph /  4.7km/h 7mph /  11.3km/h 81% 0in /  0.0mm 69 W/m2
12:58 40.5 °F /  4.7 °C 35.1 °F /  1.7 °C 30.6in /  1037.2hPa NNW 4mph /  6.4km/h 9mph /  14.5km/h 81% 0in /  0.0mm 62 W/m2
13:03 40.6 °F /  4.8 °C 35.2 °F /  1.8 °C 30.6in /  1037.2hPa NW 4mph /  6.4km/h 10mph /  16.1km/h 81% 0in /  0.0mm 56 W/m2
13:08 40.6 °F /  4.8 °C 35.2 °F /  1.8 °C 30.6in /  1037.6hPa NW 0.9mph /  1.4km/h 3mph /  4.8km/h 81% 0in /  0.0mm 69 W/m2
13:13 40.6 °F /  4.8 °C 35.2 °F /  1.8 °C 30.6in /  1037.6hPa Calm   8mph /  12.9km/h 81% 0in /  0.0mm 91 W/m2
13:18 40.8 °F /  4.9 °C 35.4 °F /  1.9 °C 30.6in /  1037.6hPa North 0.9mph /  1.4km/h 4mph /  6.4km/h 81% 0in /  0.0mm 178 W/m2
13:23 41 °F /  5 °C 36 °F /  2.2 °C 30.6in /  1037.6hPa Calm   3mph /  4.8km/h 82% 0in /  0.0mm 139 W/m2
13:28 41.4 °F /  5.2 °C 36 °F /  2.2 °C 30.6in /  1037.6hPa North 4mph /  6.4km/h 9mph /  14.5km/h 81% 0in /  0.0mm 53 W/m2
13:33 41.2 °F /  5.1 °C 35.4 °F /  1.9 °C 30.7in /  1037.9hPa Calm   7mph /  11.3km/h 80% 0in /  0.0mm 81 W/m2
13:38 41.2 °F /  5.1 °C 35.2 °F /  1.8 °C 30.6in /  1037.6hPa NNE 0.9mph /  1.4km/h 5mph /  8km/h 79% 0in /  0.0mm 72 W/m2
13:43 41 °F /  5 °C 35.2 °F /  1.8 °C 30.6in /  1037.6hPa Calm   4mph /  6.4km/h 80% 0in /  0.0mm 90 W/m2
13:48 41 °F /  5 °C 35.2 °F /  1.8 °C 30.7in /  1037.9hPa Calm   4mph /  6.4km/h 80% 0in /  0.0mm 102 W/m2
13:53 41.2 °F /  5.1 °C 35.8 °F /  2.1 °C 30.7in /  1037.9hPa NNE 2.9mph /  4.7km/h 3mph /  4.8km/h 81% 0in /  0.0mm 91 W/m2
13:58 41.2 °F /  5.1 °C 35.8 °F /  2.1 °C 30.7in /  1037.9hPa Calm   1mph /  1.6km/h 81% 0in /  0.0mm 67 W/m2
14:03 41.2 °F /  5.1 °C 35.8 °F /  2.1 °C 30.7in /  1037.9hPa Calm     81% 0in /  0.0mm 90 W/m2
14:08 41.4 °F /  5.2 °C 36 °F /  2.2 °C 30.7in /  1037.9hPa Calm   1mph /  1.6km/h 81% 0in /  0.0mm 63 W/m2
14:13 41.4 °F /  5.2 °C 36 °F /  2.2 °C 30.7in /  1037.9hPa Calm   2mph /  3.2km/h 81% 0in /  0.0mm 56 W/m2
14:18 41.4 °F /  5.2 °C 36 °F /  2.2 °C 30.7in /  1037.9hPa ENE 2mph /  3.2km/h 4mph /  6.4km/h 81% 0in /  0.0mm 53 W/m2
14:23 41.4 °F /  5.2 °C 36 °F /  2.2 °C 30.7in /  1037.9hPa NE 4.9mph /  7.9km/h 8mph /  12.9km/h 81% 0in /  0.0mm 58 W/m2
14:28 41.4 °F /  5.2 °C 36 °F /  2.2 °C 30.7in /  1037.9hPa NE 0.9mph /  1.4km/h 1mph /  1.6km/h 81% 0in /  0.0mm 42 W/m2
14:33 41.2 °F /  5.1 °C 35.8 °F /  2.1 °C 30.7in /  1037.9hPa Calm   8mph /  12.9km/h 81% 0in /  0.0mm 39 W/m2
14:38 41.2 °F /  5.1 °C 35.8 °F /  2.1 °C 30.7in /  1037.9hPa Calm   4mph /  6.4km/h 81% 0in /  0.0mm 37 W/m2
14:43 41 °F /  5 °C 35.2 °F /  1.8 °C 30.7in /  1037.9hPa North 2mph /  3.2km/h 5mph /  8km/h 80% 0in /  0.0mm 54 W/m2
14:48 41.2 °F /  5.1 °C 35.8 °F /  2.1 °C 30.7in /  1037.9hPa Calm   3mph /  4.8km/h 81% 0in /  0.0mm 60 W/m2
14:53 41.2 °F /  5.1 °C 35.8 °F /  2.1 °C 30.7in /  1037.9hPa Calm   2mph /  3.2km/h 81% 0in /  0.0mm 49 W/m2
14:58 41.2 °F /  5.1 °C 35.4 °F /  1.9 °C 30.7in /  1037.9hPa Calm   3mph /  4.8km/h 80% 0in /  0.0mm 56 W/m2
15:03 41.2 °F /  5.1 °C 35.8 °F /  2.1 °C 30.7in /  1037.9hPa Calm     81% 0in /  0.0mm 69 W/m2
15:08 41.2 °F /  5.1 °C 35.8 °F /  2.1 °C 30.7in /  1037.9hPa Calm   3mph /  4.8km/h 81% 0in /  0.0mm 70 W/m2
15:13 41.4 °F /  5.2 °C 36 °F /  2.2 °C 30.7in /  1037.9hPa Calm     81% 0in /  0.0mm 46 W/m2
15:18 41.4 °F /  5.2 °C 36 °F /  2.2 °C 30.7in /  1037.9hPa Calm     81% 0in /  0.0mm 40 W/m2
15:23 41.4 °F /  5.2 °C 36 °F /  2.2 °C 30.7in /  1037.9hPa Calm     81% 0in /  0.0mm 67 W/m2
15:28 41.4 °F /  5.2 °C 36 °F /  2.2 °C 30.7in /  1037.9hPa Calm     81% 0in /  0.0mm 56 W/m2
15:33 41.4 °F /  5.2 °C 35.6 °F /  2 °C 30.7in /  1038.3hPa NE 0.9mph /  1.4km/h 6mph /  9.7km/h 80% 0in /  0.0mm 46 W/m2
15:38 41.4 °F /  5.2 °C 35.4 °F /  1.9 °C 30.7in /  1038.3hPa Calm     79% 0in /  0.0mm 42 W/m2
15:43 41.4 °F /  5.2 °C 35.4 °F /  1.9 °C 30.7in /  1038.3hPa NW 2mph /  3.2km/h 4mph /  6.4km/h 79% 0in /  0.0mm 35 W/m2
15:48 41.4 °F /  5.2 °C 35.4 °F /  1.9 °C 30.7in /  1038.3hPa Calm   3mph /  4.8km/h 79% 0in /  0.0mm 42 W/m2
15:53 41.4 °F /  5.2 °C 35.4 °F /  1.9 °C 30.7in /  1038.3hPa NW 0.9mph /  1.4km/h 3mph /  4.8km/h 79% 0in /  0.0mm 46 W/m2
15:58 41.4 °F /  5.2 °C 35.4 °F /  1.9 °C 30.7in /  1038.6hPa Calm   1mph /  1.6km/h 79% 0in /  0.0mm 35 W/m2
16:03 41.4 °F /  5.2 °C 35.4 °F /  1.9 °C 30.7in /  1038.6hPa NNE 0.9mph /  1.4km/h 3mph /  4.8km/h 79% 0in /  0.0mm 35 W/m2
16:08 41.2 °F /  5.1 °C 35.2 °F /  1.8 °C 30.7in /  1038.6hPa NNE 4mph /  6.4km/h 4mph /  6.4km/h 79% 0in /  0.0mm 40 W/m2
16:13 41.2 °F /  5.1 °C 35.2 °F /  1.8 °C 30.7in /  1038.6hPa Calm   3mph /  4.8km/h 79% 0in /  0.0mm 30 W/m2
16:19 41.2 °F /  5.1 °C 35.2 °F /  1.8 °C 30.7in /  1038.9hPa Calm   4mph /  6.4km/h 79% 0in /  0.0mm 25 W/m2
16:24 41.2 °F /  5.1 °C 35.2 °F /  1.8 °C 30.7in /  1038.9hPa Calm   5mph /  8km/h 79% 0in /  0.0mm 21 W/m2
16:29 41.2 °F /  5.1 °C 35.2 °F /  1.8 °C 30.7in /  1038.9hPa NNE 0.9mph /  1.4km/h 4mph /  6.4km/h 79% 0in /  0.0mm 25 W/m2
16:34 41.2 °F /  5.1 °C 35.2 °F /  1.8 °C 30.7in /  1038.9hPa NNE 4.9mph /  7.9km/h 6mph /  9.7km/h 79% 0in /  0.0mm 26 W/m2
16:39 41.2 °F /  5.1 °C 35.2 °F /  1.8 °C 30.7in /  1038.9hPa North 4mph /  6.4km/h 9mph /  14.5km/h 79% 0in /  0.0mm 19 W/m2
16:44 41.2 °F /  5.1 °C 35.2 °F /  1.8 °C 30.7in /  1039.3hPa NE 2mph /  3.2km/h 3mph /  4.8km/h 79% 0in /  0.0mm 19 W/m2
16:49 41.2 °F /  5.1 °C 35.4 °F /  1.9 °C 30.7in /  1039.3hPa Calm   6mph /  9.7km/h 80% 0in /  0.0mm 12 W/m2
16:54 41.2 °F /  5.1 °C 35.4 °F /  1.9 °C 30.7in /  1039.3hPa North 0.9mph /  1.4km/h 2mph /  3.2km/h 80% 0in /  0.0mm 5 W/m2
16:59 41 °F /  5 °C 35.2 °F /  1.8 °C 30.7in /  1039.6hPa NNE 2mph /  3.2km/h 11mph /  17.7km/h 80% 0in /  0.0mm 0 W/m2
17:04 40.8 °F /  4.9 °C 35.4 °F /  1.9 °C 30.7in /  1039.6hPa NE 6mph /  9.7km/h 9mph /  14.5km/h 81% 0in /  0.0mm 0 W/m2
17:09 40.5 °F /  4.7 °C 35.8 °F /  2.1 °C 30.7in /  1039.6hPa NNE 4mph /  6.4km/h 4mph /  6.4km/h 83% 0in /  0.0mm 0 W/m2
17:14 40.5 °F /  4.7 °C 35.8 °F /  2.1 °C 30.7in /  1039.6hPa Calm   1mph /  1.6km/h 83% 0in /  0.0mm 0 W/m2
17:19 40.3 °F /  4.6 °C 35.8 °F /  2.1 °C 30.7in /  1040.0hPa Calm   6mph /  9.7km/h 84% 0in /  0.0mm 0 W/m2
17:24 40.1 °F /  4.5 °C 35.6 °F /  2 °C 30.7in /  1040.0hPa NNE 4mph /  6.4km/h 4mph /  6.4km/h 84% 0in /  0.0mm 0 W/m2
17:29 40.1 °F /  4.5 °C 35.6 °F /  2 °C 30.7in /  1040.0hPa Calm   4mph /  6.4km/h 84% 0in /  0.0mm 0 W/m2
17:34 39.9 °F /  4.4 °C 35.8 °F /  2.1 °C 30.7in /  1040.0hPa Calm   3mph /  4.8km/h 85% 0in /  0.0mm 0 W/m2
17:39 39.9 °F /  4.4 °C 35.8 °F /  2.1 °C 30.7in /  1040.0hPa NW 4mph /  6.4km/h 4mph /  6.4km/h 85% 0in /  0.0mm 0 W/m2
17:44 39.7 °F /  4.3 °C 35.6 °F /  2 °C 30.7in /  1040.3hPa NNE 2mph /  3.2km/h 2mph /  3.2km/h 85% 0in /  0.0mm 0 W/m2
17:49 39.7 °F /  4.3 °C 35.6 °F /  2 °C 30.7in /  1040.3hPa North 2mph /  3.2km/h 4mph /  6.4km/h 85% 0in /  0.0mm 0 W/m2
17:54 39.7 °F /  4.3 °C 35.6 °F /  2 °C 30.7in /  1040.3hPa NNW 2mph /  3.2km/h 9mph /  14.5km/h 85% 0in /  0.0mm 0 W/m2
17:59 39.7 °F /  4.3 °C 35.6 °F /  2 °C 30.7in /  1040.3hPa NNE 4.9mph /  7.9km/h 5mph /  8km/h 85% 0in /  0.0mm 0 W/m2
18:04 39.7 °F /  4.3 °C 35.6 °F /  2 °C 30.7in /  1040.6hPa Calm   9mph /  14.5km/h 85% 0in /  0.0mm 0 W/m2
18:09 39.7 °F /  4.3 °C 35.6 °F /  2 °C 30.7in /  1040.6hPa Calm   5mph /  8km/h 85% 0in /  0.0mm 0 W/m2
18:14 39.6 °F /  4.2 °C 35.8 °F /  2.1 °C 30.7in /  1040.6hPa Calm   3mph /  4.8km/h 86% 0in /  0.0mm 0 W/m2
18:19 39.6 °F /  4.2 °C 35.8 °F /  2.1 °C 30.7in /  1040.6hPa Calm   5mph /  8km/h 86% 0in /  0.0mm 0 W/m2
18:24 39.6 °F /  4.2 °C 35.8 °F /  2.1 °C 30.7in /  1041.0hPa NNE 4.9mph /  7.9km/h 10mph /  16.1km/h 86% 0in /  0.0mm 0 W/m2
18:29 39.6 °F /  4.2 °C 35.8 °F /  2.1 °C 30.7in /  1041.0hPa North 2.9mph /  4.7km/h 10mph /  16.1km/h 86% 0in /  0.0mm 0 W/m2
18:34 39.6 °F /  4.2 °C 36 °F /  2.2 °C 30.7in /  1041.0hPa Calm   1mph /  1.6km/h 87% 0in /  0.0mm 0 W/m2
18:39 39.4 °F /  4.1 °C 35.8 °F /  2.1 °C 30.7in /  1041.0hPa Calm   10mph /  16.1km/h 87% 0in /  0.0mm 0 W/m2
18:44 39.4 °F /  4.1 °C 36.1 °F /  2.3 °C 30.8in /  1041.3hPa NNE 0.9mph /  1.4km/h 4mph /  6.4km/h 88% 0in /  0.0mm 0 W/m2
18:49 39.2 °F /  4 °C 36 °F /  2.2 °C 30.8in /  1041.3hPa Calm   8mph /  12.9km/h 88% 0in /  0.0mm 0 W/m2
18:54 39 °F /  3.9 °C 36.1 °F /  2.3 °C 30.8in /  1041.3hPa Calm     89% 0in /  0.0mm 0 W/m2
18:59 39 °F /  3.9 °C 36.1 °F /  2.3 °C 30.8in /  1041.3hPa Calm   3mph /  4.8km/h 89% 0in /  0.0mm 0 W/m2
19:04 38.8 °F /  3.8 °C 36 °F /  2.2 °C 30.8in /  1041.3hPa Calm     89% 0in /  0.0mm 0 W/m2
19:09 38.8 °F /  3.8 °C 36 °F /  2.2 °C 30.8in /  1041.7hPa Calm     89% 0in /  0.0mm 0 W/m2
19:14 38.8 °F /  3.8 °C 36 °F /  2.2 °C 30.8in /  1041.7hPa Calm   3mph /  4.8km/h 89% 0in /  0.0mm 0 W/m2
19:19 38.8 °F /  3.8 °C 36 °F /  2.2 °C 30.8in /  1041.7hPa Calm   2mph /  3.2km/h 89% 0in /  0.0mm 0 W/m2
19:24 38.8 °F /  3.8 °C 36 °F /  2.2 °C 30.8in /  1041.7hPa NNW 2mph /  3.2km/h 3mph /  4.8km/h 89% 0in /  0.0mm 0 W/m2
19:29 38.8 °F /  3.8 °C 36 °F /  2.2 °C 30.8in /  1041.7hPa NNW 4.9mph /  7.9km/h 6mph /  9.7km/h 89% 0in /  0.0mm 0 W/m2
19:34 39 °F /  3.9 °C 35.8 °F /  2.1 °C 30.8in /  1041.7hPa Calm     88% 0in /  0.0mm 0 W/m2
19:39 39 °F /  3.9 °C 35.8 °F /  2.1 °C 30.8in /  1041.7hPa NW 0.9mph /  1.4km/h 1mph /  1.6km/h 88% 0in /  0.0mm 0 W/m2
19:44 39 °F /  3.9 °C 35.4 °F /  1.9 °C 30.8in /  1042.0hPa Calm     87% 0in /  0.0mm 0 W/m2
19:50 39 °F /  3.9 °C 35.4 °F /  1.9 °C 30.8in /  1042.0hPa Calm     87% 0in /  0.0mm 0 W/m2
19:55 39 °F /  3.9 °C 35.4 °F /  1.9 °C 30.8in /  1042.0hPa Calm   2mph /  3.2km/h 87% 0in /  0.0mm 0 W/m2
20:00 39 °F /  3.9 °C 35.4 °F /  1.9 °C 30.8in /  1042.3hPa Calm     87% 0in /  0.0mm 0 W/m2
20:05 39 °F /  3.9 °C 35.4 °F /  1.9 °C 30.8in /  1042.0hPa Calm   3mph /  4.8km/h 87% 0in /  0.0mm 0 W/m2
20:10 39 °F /  3.9 °C 35.4 °F /  1.9 °C 30.8in /  1042.3hPa Calm   1mph /  1.6km/h 87% 0in /  0.0mm 0 W/m2
20:15 38.8 °F /  3.8 °C 35.2 °F /  1.8 °C 30.8in /  1042.3hPa Calm   4mph /  6.4km/h 87% 0in /  0.0mm 0 W/m2
20:20 38.8 °F /  3.8 °C 35.2 °F /  1.8 °C 30.8in /  1042.3hPa Calm   1mph /  1.6km/h 87% 0in /  0.0mm 0 W/m2
20:25 38.8 °F /  3.8 °C 35.2 °F /  1.8 °C 30.8in /  1042.3hPa Calm   1mph /  1.6km/h 87% 0in /  0.0mm 0 W/m2
20:30 38.8 °F /  3.8 °C 35.2 °F /  1.8 °C 30.8in /  1042.3hPa Calm     87% 0in /  0.0mm 0 W/m2
20:35 38.8 °F /  3.8 °C 35.2 °F /  1.8 °C 30.8in /  1042.3hPa Calm   1mph /  1.6km/h 87% 0in /  0.0mm 0 W/m2
20:40 38.8 °F /  3.8 °C 35.2 °F /  1.8 °C 30.8in /  1042.7hPa Calm     87% 0in /  0.0mm 0 W/m2
20:45 38.8 °F /  3.8 °C 35.2 °F /  1.8 °C 30.8in /  1042.7hPa Calm     87% 0in /  0.0mm 0 W/m2
20:50 39 °F /  3.9 °C 35.8 °F /  2.1 °C 30.8in /  1042.7hPa Calm   3mph /  4.8km/h 88% 0in /  0.0mm 0 W/m2
20:55 39 °F /  3.9 °C 35.4 °F /  1.9 °C 30.8in /  1042.7hPa Calm     87% 0in /  0.0mm 0 W/m2
21:00 39 °F /  3.9 °C 35.8 °F /  2.1 °C 30.8in /  1042.7hPa Calm   1mph /  1.6km/h 88% 0in /  0.0mm 0 W/m2
21:05 39.2 °F /  4 °C 35.6 °F /  2 °C 30.8in /  1042.7hPa Calm   8mph /  12.9km/h 87% 0in /  0.0mm 0 W/m2
21:10 39.2 °F /  4 °C 35.6 °F /  2 °C 30.8in /  1042.7hPa Calm     87% 0in /  0.0mm 0 W/m2
21:15 39 °F /  3.9 °C 35.4 °F /  1.9 °C 30.8in /  1042.7hPa Calm   2mph /  3.2km/h 87% 0in /  0.0mm 0 W/m2
21:20 39.2 °F /  4 °C 35.6 °F /  2 °C 30.8in /  1043.0hPa Calm   3mph /  4.8km/h 87% 0in /  0.0mm 0 W/m2
21:25 39 °F /  3.9 °C 35.4 °F /  1.9 °C 30.8in /  1043.0hPa Calm     87% 0in /  0.0mm 0 W/m2
21:30 39 °F /  3.9 °C 35.4 °F /  1.9 °C 30.8in /  1043.0hPa Calm   3mph /  4.8km/h 87% 0in /  0.0mm 0 W/m2
21:35 39 °F /  3.9 °C 35.4 °F /  1.9 °C 30.8in /  1043.0hPa Calm   4mph /  6.4km/h 87% 0in /  0.0mm 0 W/m2
21:40 39 °F /  3.9 °C 35.4 °F /  1.9 °C 30.8in /  1043.0hPa Calm   2mph /  3.2km/h 87% 0in /  0.0mm 0 W/m2
21:45 38.8 °F /  3.8 °C 35.2 °F /  1.8 °C 30.8in /  1043.0hPa Calm     87% 0in /  0.0mm 0 W/m2
21:50 39 °F /  3.9 °C 35.8 °F /  2.1 °C 30.8in /  1043.3hPa Calm     88% 0in /  0.0mm 0 W/m2
21:55 39 °F /  3.9 °C 35.8 °F /  2.1 °C 30.8in /  1043.3hPa Calm   3mph /  4.8km/h 88% 0in /  0.0mm 0 W/m2
22:00 39 °F /  3.9 °C 35.8 °F /  2.1 °C 30.8in /  1043.3hPa NE 0.9mph /  1.4km/h 8mph /  12.9km/h 88% 0in /  0.0mm 0 W/m2
22:05 39.2 °F /  4 °C 36 °F /  2.2 °C 30.8in /  1043.3hPa NNW 9mph /  14.5km/h 9mph /  14.5km/h 88% 0in /  0.0mm 0 W/m2
22:10 39.2 °F /  4 °C 35.6 °F /  2 °C 30.8in /  1043.3hPa North 2mph /  3.2km/h 8mph /  12.9km/h 87% 0in /  0.0mm 0 W/m2
22:15 39.2 °F /  4 °C 35.6 °F /  2 °C 30.8in /  1043.3hPa Calm   3mph /  4.8km/h 87% 0in /  0.0mm 0 W/m2
22:20 39.2 °F /  4 °C 35.6 °F /  2 °C 30.8in /  1043.3hPa North 0.9mph /  1.4km/h 5mph /  8km/h 87% 0in /  0.0mm 0 W/m2
22:25 39.2 °F /  4 °C 36 °F /  2.2 °C 30.8in /  1043.3hPa Calm   6mph /  9.7km/h 88% 0in /  0.0mm 0 W/m2
22:30 39.2 °F /  4 °C 36 °F /  2.2 °C 30.8in /  1043.3hPa NNW 2.9mph /  4.7km/h 8mph /  12.9km/h 88% 0in /  0.0mm 0 W/m2
22:35 39.2 °F /  4 °C 36 °F /  2.2 °C 30.8in /  1043.3hPa Calm   5mph /  8km/h 88% 0in /  0.0mm 0 W/m2
22:40 39.2 °F /  4 °C 36 °F /  2.2 °C 30.8in /  1043.3hPa NW 2.9mph /  4.7km/h 8mph /  12.9km/h 88% 0in /  0.0mm 0 W/m2
22:45 39.2 °F /  4 °C 35.6 °F /  2 °C 30.8in /  1043.3hPa Calm   6mph /  9.7km/h 87% 0in /  0.0mm 0 W/m2
22:51 39.2 °F /  4 °C 36 °F /  2.2 °C 30.8in /  1043.3hPa Calm   1mph /  1.6km/h 88% 0in /  0.0mm 0 W/m2
22:56 39.2 °F /  4 °C 36 °F /  2.2 °C 30.8in /  1043.7hPa NNW 2.9mph /  4.7km/h 7mph /  11.3km/h 88% 0in /  0.0mm 0 W/m2
23:01 39.2 °F /  4 °C 35.6 °F /  2 °C 30.8in /  1043.7hPa North 2.9mph /  4.7km/h 5mph /  8km/h 87% 0in /  0.0mm 0 W/m2
23:06 39.2 °F /  4 °C 36 °F /  2.2 °C 30.8in /  1044.0hPa Calm   6mph /  9.7km/h 88% 0in /  0.0mm 0 W/m2
23:11 39.2 °F /  4 °C 36 °F /  2.2 °C 30.8in /  1044.0hPa Calm   1mph /  1.6km/h 88% 0in /  0.0mm 0 W/m2
23:16 39.2 °F /  4 °C 36 °F /  2.2 °C 30.8in /  1044.0hPa Calm   1mph /  1.6km/h 88% 0in /  0.0mm 0 W/m2
23:21 39 °F /  3.9 °C 35.8 °F /  2.1 °C 30.8in /  1044.0hPa Calm   8mph /  12.9km/h 88% 0in /  0.0mm 0 W/m2
23:26 39 °F /  3.9 °C 35.8 °F /  2.1 °C 30.8in /  1044.0hPa Calm   2mph /  3.2km/h 88% 0in /  0.0mm 0 W/m2
23:31 39 °F /  3.9 °C 35.8 °F /  2.1 °C 30.8in /  1044.0hPa Calm   6mph /  9.7km/h 88% 0in /  0.0mm 0 W/m2
23:36 39 °F /  3.9 °C 35.8 °F /  2.1 °C 30.8in /  1044.0hPa Calm   1mph /  1.6km/h 88% 0in /  0.0mm 0 W/m2
23:41 39 °F /  3.9 °C 35.8 °F /  2.1 °C 30.8in /  1044.4hPa Calm   1mph /  1.6km/h 88% 0in /  0.0mm 0 W/m2
23:46 39 °F /  3.9 °C 35.8 °F /  2.1 °C 30.8in /  1044.4hPa Calm   6mph /  9.7km/h 88% 0in /  0.0mm 0 W/m2
23:51 39 °F /  3.9 °C 35.8 °F /  2.1 °C 30.8in /  1044.4hPa Calm   8mph /  12.9km/h 88% 0in /  0.0mm 0 W/m2
23:56 39 °F /  3.9 °C 35.8 °F /  2.1 °C 30.8in /  1044.4hPa Calm   3mph /  4.8km/h 88% 0in /  0.0mm 0 W/m2
Juneau County Weather
Compliments of Weather Underground - 4 mb